Time;durP1;ratioP1;P1;durP2;ratioP2;P2;SDS_P1;SDS_P2;PMS_P1;PMS_P2;Temp;Humidity;BMP_temperature;BMP_pressure;BME280_temperature;BME280_humidity;BME280_pressure;Samples;Min_cycle;Max_cycle;Signal;HPM_P1;HPM_P2
2022/10/26 00:00:46;;;;;;;1.95;0.82;;;;;;;;;;10490393;28;20041;-80
2022/10/26 00:05:49;;;;;;;1.88;0.90;;;;;;;;;;10489356;28;20052;-76
2022/10/26 00:10:52;;;;;;;1.38;0.88;;;;;;;;;;10487774;28;20048;-78
2022/10/26 00:15:57;;;;;;;3.25;1.10;;;;;;;;;;10476602;28;20080;-77
2022/10/26 00:21:06;;;;;;;3.65;0.88;;;;;;;;;;10469382;28;20036;-79
2022/10/26 00:26:10;;;;;;;2.90;0.80;;;;;;;;;;10469013;28;20178;-77
2022/10/26 00:31:16;;;;;;;2.85;0.80;;;;;;;;;;10486005;28;20515;-79
2022/10/26 00:36:19;;;;;;;3.60;0.90;;;;;;;;;;10494437;28;20041;-79
2022/10/26 00:41:24;;;;;;;1.13;0.65;;;;;;;;;;10487680;28;20047;-76
2022/10/26 00:46:32;;;;;;;1.50;0.80;;;;;;;;;;10484798;28;20055;-79
2022/10/26 00:51:39;;;;;;;1.30;0.82;;;;;;;;;;10501021;28;20118;-77
2022/10/26 00:56:42;;;;;;;3.58;0.73;;;;;;;;;;10459143;28;20045;-77
2022/10/26 01:01:48;;;;;;;1.85;0.70;;;;;;;;;;10466269;28;20041;-78
2022/10/26 01:06:52;;;;;;;1.70;0.82;;;;;;;;;;10485544;28;20040;-79
2022/10/26 01:11:56;;;;;;;1.63;0.80;;;;;;;;;;10482327;28;20068;-78
2022/10/26 01:17:08;;;;;;;3.15;0.85;;;;;;;;;;10472529;28;20047;-78
2022/10/26 01:22:15;;;;;;;1.75;0.77;;;;;;;;;;10463542;28;20448;-79
2022/10/26 01:27:24;;;;;;;1.70;0.75;;;;;;;;;;10491556;28;20123;-78
2022/10/26 01:32:33;;;;;;;3.63;1.35;;;;;;;;;;10486497;28;20044;-81
2022/10/26 01:37:40;;;;;;;9.98;1.40;;;;;;;;;;10499698;28;20048;-79
2022/10/26 01:42:48;;;;;;;2.22;0.80;;;;;;;;;;10496565;28;20043;-77
2022/10/26 01:47:54;;;;;;;1.15;0.70;;;;;;;;;;10463270;28;20059;-78
2022/10/26 01:52:58;;;;;;;1.40;0.85;;;;;;;;;;10505646;28;20526;-79
2022/10/26 01:58:10;;;;;;;1.00;0.77;;;;;;;;;;10509334;28;20110;-80
2022/10/26 02:03:20;;;;;;;5.28;0.90;;;;;;;;;;10481621;28;20044;-79
2022/10/26 02:08:34;;;;;;;1.40;0.70;;;;;;;;;;10511855;28;20044;-78
2022/10/26 02:13:42;;;;;;;1.17;0.65;;;;;;;;;;10505955;28;20040;-79
2022/10/26 02:18:51;;;;;;;1.08;0.80;;;;;;;;;;10489833;28;20044;-79
2022/10/26 02:23:56;;;;;;;0.90;0.70;;;;;;;;;;10486237;28;20062;-77
2022/10/26 02:29:04;;;;;;;1.17;0.65;;;;;;;;;;10485002;28;20040;-80
2022/10/26 02:34:12;;;;;;;1.77;0.70;;;;;;;;;;10479654;28;20040;-79
2022/10/26 02:39:17;;;;;;;3.17;0.70;;;;;;;;;;10481337;28;20040;-79
2022/10/26 02:44:26;;;;;;;1.95;0.65;;;;;;;;;;10503658;28;20530;-80
2022/10/26 02:49:30;;;;;;;3.38;0.95;;;;;;;;;;10487743;28;20070;-77
2022/10/26 02:54:44;;;;;;;0.75;0.68;;;;;;;;;;10506277;28;20042;-79
2022/10/26 02:59:49;;;;;;;0.95;0.60;;;;;;;;;;10495422;28;20052;-77
2022/10/26 03:04:55;;;;;;;1.02;0.52;;;;;;;;;;10495897;28;20060;-80
2022/10/26 03:09:59;;;;;;;0.63;0.63;;;;;;;;;;10473653;28;20067;-81
2022/10/26 03:15:02;;;;;;;0.93;0.70;;;;;;;;;;10517470;28;20041;-79
2022/10/26 03:20:08;;;;;;;0.52;0.52;;;;;;;;;;10503665;28;20049;-79
2022/10/26 03:25:14;;;;;;;1.02;0.80;;;;;;;;;;10494701;28;20128;-79
2022/10/26 03:30:17;;;;;;;3.93;0.73;;;;;;;;;;10501340;28;20534;-79
2022/10/26 03:35:22;;;;;;;0.75;0.60;;;;;;;;;;10479276;28;20036;-81
2022/10/26 03:40:25;;;;;;;1.10;0.63;;;;;;;;;;10477708;28;20068;-77
2022/10/26 03:45:29;;;;;;;0.93;0.60;;;;;;;;;;10483464;28;20069;-82
2022/10/26 03:50:33;;;;;;;0.90;0.63;;;;;;;;;;10483348;28;20071;-77
2022/10/26 03:55:37;;;;;;;0.98;0.60;;;;;;;;;;10467678;28;20044;-78
2022/10/26 04:00:40;;;;;;;0.80;0.60;;;;;;;;;;10466633;28;20044;-77
2022/10/26 04:05:45;;;;;;;1.75;0.63;;;;;;;;;;10485288;28;20051;-79
2022/10/26 04:10:48;;;;;;;3.17;0.90;;;;;;;;;;10492933;28;20041;-80
2022/10/26 04:15:51;;;;;;;1.02;0.60;;;;;;;;;;10490815;28;20044;-79
2022/10/26 04:20:56;;;;;;;1.25;0.73;;;;;;;;;;10503017;28;20052;-79
2022/10/26 04:25:59;;;;;;;0.80;0.77;;;;;;;;;;10484497;28;20036;-80
2022/10/26 04:31:02;;;;;;;0.70;0.65;;;;;;;;;;10481757;28;20051;-80
2022/10/26 04:36:08;;;;;;;0.88;0.70;;;;;;;;;;10482714;28;20534;-80
2022/10/26 04:41:11;;;;;;;3.53;1.00;;;;;;;;;;10480127;28;20500;-80
2022/10/26 04:46:14;;;;;;;0.75;0.73;;;;;;;;;;10482306;28;20049;-78
2022/10/26 04:51:20;;;;;;;2.55;1.02;;;;;;;;;;10478273;28;20483;-79
2022/10/26 04:56:23;;;;;;;1.10;0.75;;;;;;;;;;10497963;28;20036;-79
2022/10/26 05:01:26;;;;;;;1.70;0.80;;;;;;;;;;10480063;28;20044;-80
2022/10/26 05:06:31;;;;;;;1.88;0.80;;;;;;;;;;10508038;28;20143;-79
2022/10/26 05:11:34;;;;;;;4.57;0.95;;;;;;;;;;10477711;28;20051;-78
2022/10/26 05:16:37;;;;;;;1.67;0.80;;;;;;;;;;10511846;28;20032;-79
2022/10/26 05:21:42;;;;;;;1.27;0.80;;;;;;;;;;10495209;28;20381;-78
2022/10/26 05:26:45;;;;;;;1.40;0.90;;;;;;;;;;10483619;28;20041;-79
2022/10/26 05:31:48;;;;;;;3.15;1.02;;;;;;;;;;10481256;28;20420;-78
2022/10/26 05:36:54;;;;;;;1.73;1.27;;;;;;;;;;10485650;28;20432;-79
2022/10/26 05:41:58;;;;;;;5.50;1.08;;;;;;;;;;10490874;28;20618;-79
2022/10/26 05:47:01;;;;;;;1.63;0.90;;;;;;;;;;10492564;28;20041;-79
2022/10/26 05:52:06;;;;;;;0.77;0.77;;;;;;;;;;10486423;28;20051;-78
2022/10/26 05:57:12;;;;;;;1.30;0.90;;;;;;;;;;10504142;28;20044;-78
2022/10/26 06:02:27;;;;;;;1.70;0.80;;;;;;;;;;10480916;28;20424;-79
2022/10/26 06:07:33;;;;;;;1.75;1.10;;;;;;;;;;10509635;28;20044;-78
2022/10/26 06:12:36;;;;;;;0.77;0.75;;;;;;;;;;10480464;28;20045;-78
2022/10/26 06:17:47;;;;;;;1.35;0.90;;;;;;;;;;10500577;28;20040;-79
2022/10/26 06:23:03;;;;;;;0.98;0.88;;;;;;;;;;10525132;28;20059;-81
2022/10/26 06:28:19;;;;;;;1.30;0.80;;;;;;;;;;10485786;28;20495;-80
2022/10/26 06:33:23;;;;;;;;;;;;;;;;;;10500043;28;20369;-81
2022/10/26 06:38:35;;;;;;;2.25;0.90;;;;;;;;;;10501589;28;19920;-78
2022/10/26 06:43:38;;;;;;;2.13;1.08;;;;;;;;;;10508619;28;20054;-81
2022/10/26 06:48:51;;;;;;;1.52;0.98;;;;;;;;;;10495485;28;20032;-80
2022/10/26 06:54:04;;;;;;;2.42;0.70;;;;;;;;;;10500463;28;20052;-77
2022/10/26 06:59:12;;;;;;;1.65;0.73;;;;;;;;;;10533001;28;20040;-78
2022/10/26 07:04:16;;;;;;;1.58;0.70;;;;;;;;;;10509028;28;20055;-81
2022/10/26 07:09:20;;;;;;;1.38;1.10;;;;;;;;;;10495736;28;20040;-77
2022/10/26 07:14:24;;;;;;;1.65;0.80;;;;;;;;;;10473642;28;20051;-79
2022/10/26 07:19:27;;;;;;;1.75;1.08;;;;;;;;;;10532851;28;20032;-81
2022/10/26 07:24:31;;;;;;;1.58;0.80;;;;;;;;;;10524848;28;20044;-79
2022/10/26 07:29:35;;;;;;;4.05;0.90;;;;;;;;;;10497495;28;20048;-79
2022/10/26 07:34:38;;;;;;;1.73;0.80;;;;;;;;;;10483984;28;20052;-81
2022/10/26 07:39:43;;;;;;;1.10;0.70;;;;;;;;;;10517558;28;20060;-79
2022/10/26 07:44:46;;;;;;;3.25;0.60;;;;;;;;;;10503150;28;20585;-80
2022/10/26 07:49:49;;;;;;;1.55;0.70;;;;;;;;;;10489185;28;20560;-81
2022/10/26 07:54:54;;;;;;;1.55;0.90;;;;;;;;;;10489561;28;20512;-79
2022/10/26 07:59:57;;;;;;;0.82;0.55;;;;;;;;;;10513855;28;20036;-79
2022/10/26 08:05:00;;;;;;;3.03;0.80;;;;;;;;;;10515674;28;20066;-79
2022/10/26 08:10:06;;;;;;;1.20;0.65;;;;;;;;;;10483075;28;20482;-79
2022/10/26 08:15:10;;;;;;;3.20;0.60;;;;;;;;;;10487857;28;20408;-79
2022/10/26 08:20:14;;;;;;;2.83;0.90;;;;;;;;;;10520450;28;20555;-78
2022/10/26 08:25:18;;;;;;;1.50;0.65;;;;;;;;;;10523562;28;20051;-80
2022/10/26 08:30:22;;;;;;;1.65;1.02;;;;;;;;;;10465859;28;20095;-80
2022/10/26 08:35:25;;;;;;;1.92;0.82;;;;;;;;;;10467309;28;20504;-79
2022/10/26 08:40:32;;;;;;;1.52;0.60;;;;;;;;;;10492979;28;20045;-80
2022/10/26 08:45:39;;;;;;;1.05;0.65;;;;;;;;;;10482795;28;20056;-82
2022/10/26 08:50:45;;;;;;;0.88;0.70;;;;;;;;;;10499496;28;20060;-80
2022/10/26 08:55:54;;;;;;;3.00;0.68;;;;;;;;;;10509316;28;20059;-81
2022/10/26 09:01:00;;;;;;;0.55;0.55;;;;;;;;;;10494340;28;20055;-81
2022/10/26 09:06:12;;;;;;;2.30;0.60;;;;;;;;;;10498658;28;20052;-77
2022/10/26 09:11:25;;;;;;;2.50;0.63;;;;;;;;;;10511054;28;20054;-80
2022/10/26 09:16:34;;;;;;;4.82;1.02;;;;;;;;;;10492736;28;20044;-80
2022/10/26 09:21:47;;;;;;;3.45;1.13;;;;;;;;;;10493639;28;20044;-79
2022/10/26 09:26:55;;;;;;;1.70;0.90;;;;;;;;;;10492100;28;20049;-80
2022/10/26 09:32:01;;;;;;;2.75;0.90;;;;;;;;;;10490453;28;20148;-83
2022/10/26 09:37:15;;;;;;;3.80;1.20;;;;;;;;;;10470516;28;20093;-81
2022/10/26 09:42:25;;;;;;;2.60;0.93;;;;;;;;;;10490005;28;20040;-81
2022/10/26 09:47:37;;;;;;;1.70;0.90;;;;;;;;;;10496533;28;20048;-81
2022/10/26 09:52:40;;;;;;;2.80;0.88;;;;;;;;;;10479420;28;20043;-79
2022/10/26 09:57:46;;;;;;;2.85;1.00;;;;;;;;;;10509565;28;20028;-79
2022/10/26 10:02:51;;;;;;;3.92;1.38;;;;;;;;;;10495165;28;20518;-79
2022/10/26 10:08:11;;;;;;;4.25;1.10;;;;;;;;;;10518438;28;20067;-79
2022/10/26 10:13:20;;;;;;;1.08;0.70;;;;;;;;;;10500649;28;20055;-79
2022/10/26 10:18:24;;;;;;;2.35;0.77;;;;;;;;;;10507361;28;20040;-82
2022/10/26 10:23:30;;;;;;;1.27;0.70;;;;;;;;;;10521146;28;20097;-80
2022/10/26 10:28:36;;;;;;;3.65;1.23;;;;;;;;;;10489408;28;20408;-80
2022/10/26 10:33:41;;;;;;;3.60;0.95;;;;;;;;;;10446894;28;20091;-80
2022/10/26 10:38:47;;;;;;;6.30;1.27;;;;;;;;;;10489290;28;20040;-80
2022/10/26 10:43:55;;;;;;;3.58;1.48;;;;;;;;;;10485565;28;20051;-81
2022/10/26 10:49:04;;;;;;;3.78;1.40;;;;;;;;;;10492519;28;20036;-79
2022/10/26 10:54:20;;;;;;;2.40;0.85;;;;;;;;;;10461230;28;20040;-79
2022/10/26 10:59:49;;;;;;;2.75;0.90;;;;;;;;;;10488441;28;20621;-81
2022/10/26 11:05:05;;;;;;;2.90;1.27;;;;;;;;;;10474066;28;20041;-79
2022/10/26 11:10:14;;;;;;;2.10;0.80;;;;;;;;;;10485620;28;20042;-78
2022/10/26 11:15:22;;;;;;;4.88;1.15;;;;;;;;;;10497361;28;20052;-80
2022/10/26 11:20:28;;;;;;;2.70;1.02;;;;;;;;;;10489726;28;20048;-80
2022/10/26 11:25:38;;;;;;;2.03;0.77;;;;;;;;;;10521631;28;20094;-81
2022/10/26 11:30:47;;;;;;;3.75;1.05;;;;;;;;;;10490710;28;20040;-79
2022/10/26 11:35:57;;;;;;;3.53;0.90;;;;;;;;;;10524374;28;20535;-79
2022/10/26 11:41:07;;;;;;;4.97;1.20;;;;;;;;;;10487647;28;20044;-80
2022/10/26 11:46:17;;;;;;;1.50;0.80;;;;;;;;;;10502825;28;20044;-79
2022/10/26 11:51:36;;;;;;;3.00;1.10;;;;;;;;;;10492763;28;20040;-80
2022/10/26 11:56:43;;;;;;;2.80;0.82;;;;;;;;;;10488165;28;20045;-79
2022/10/26 12:01:50;;;;;;;2.55;1.02;;;;;;;;;;10492737;28;20086;-80
2022/10/26 12:06:56;;;;;;;2.58;0.90;;;;;;;;;;10516482;28;20044;-79
2022/10/26 12:12:04;;;;;;;3.90;1.05;;;;;;;;;;10477428;28;20547;-79
2022/10/26 12:17:14;;;;;;;1.52;0.60;;;;;;;;;;10480348;28;20045;-77
2022/10/26 12:22:19;;;;;;;2.85;0.60;;;;;;;;;;10492818;28;20563;-79
2022/10/26 12:27:32;;;;;;;1.50;0.65;;;;;;;;;;10514282;28;20051;-80
2022/10/26 12:32:53;;;;;;;2.95;0.70;;;;;;;;;;10475150;28;20792;-80
2022/10/26 12:37:56;;;;;;;0.88;0.32;;;;;;;;;;10504592;28;20732;-78
2022/10/26 12:43:39;;;;;;;0.98;0.40;;;;;;;;;;10512329;28;20048;-78
2022/10/26 12:48:45;;;;;;;2.78;0.70;;;;;;;;;;10457678;28;20041;-78
2022/10/26 12:53:53;;;;;;;0.68;0.40;;;;;;;;;;10482115;28;20055;-78
2022/10/26 12:59:16;;;;;;;0.80;0.47;;;;;;;;;;10464437;28;20124;-79
2022/10/26 13:04:50;;;;;;;2.15;0.80;;;;;;;;;;10455432;28;20047;-79
2022/10/26 13:10:01;;;;;;;2.20;0.70;;;;;;;;;;10484124;28;20114;-76
2022/10/26 13:15:17;;;;;;;2.65;0.65;;;;;;;;;;10483964;28;20282;-78
2022/10/26 13:20:22;;;;;;;1.10;0.50;;;;;;;;;;10450134;28;20505;-79
2022/10/26 13:25:28;;;;;;;1.85;0.75;;;;;;;;;;10489526;28;20055;-79
2022/10/26 13:30:45;;;;;;;1.92;0.70;;;;;;;;;;10487952;28;20048;-77
2022/10/26 13:35:51;;;;;;;4.60;1.15;;;;;;;;;;10491378;28;20053;-77
2022/10/26 13:41:07;;;;;;;2.92;0.93;;;;;;;;;;10483871;28;20055;-79
2022/10/26 13:46:23;;;;;;;3.47;0.80;;;;;;;;;;10518985;28;20729;-79
2022/10/26 13:51:35;;;;;;;1.35;0.80;;;;;;;;;;10510659;28;20044;-78
2022/10/26 13:56:44;;;;;;;3.47;0.80;;;;;;;;;;10484446;28;20103;-79
2022/10/26 14:02:06;;;;;;;1.48;0.57;;;;;;;;;;10492954;28;20067;-80
2022/10/26 14:07:19;;;;;;;3.13;1.05;;;;;;;;;;10504264;28;20060;-77
2022/10/26 14:12:24;;;;;;;0.88;0.47;;;;;;;;;;10507607;28;20032;-78
2022/10/26 14:17:27;;;;;;;1.60;0.77;;;;;;;;;;10526645;28;20052;-77
2022/10/26 14:22:32;;;;;;;1.08;0.65;;;;;;;;;;10509387;28;20036;-78
2022/10/26 14:27:39;;;;;;;3.75;1.38;;;;;;;;;;10528887;28;20439;-78
2022/10/26 14:32:43;;;;;;;2.25;0.57;;;;;;;;;;10492819;28;20048;-79
2022/10/26 14:37:51;;;;;;;0.93;0.52;;;;;;;;;;10483381;28;20044;-75
2022/10/26 14:42:57;;;;;;;1.08;0.50;;;;;;;;;;10499627;28;20044;-77
2022/10/26 14:48:01;;;;;;;2.72;0.80;;;;;;;;;;10523550;28;20036;-77
2022/10/26 14:53:15;;;;;;;3.13;0.93;;;;;;;;;;10504998;28;20116;-77
2022/10/26 14:58:22;;;;;;;9.32;1.40;;;;;;;;;;10525243;28;20043;-77
2022/10/26 15:03:26;;;;;;;2.05;0.70;;;;;;;;;;10529896;28;20102;-76
2022/10/26 15:08:45;;;;;;;1.40;0.60;;;;;;;;;;10511675;28;20044;-74
2022/10/26 15:13:55;;;;;;;2.65;0.55;;;;;;;;;;10524811;28;20048;-77
2022/10/26 15:19:06;;;;;;;1.13;0.35;;;;;;;;;;10483392;28;20056;-77
2022/10/26 15:24:26;;;;;;;0.38;0.20;;;;;;;;;;10496408;28;20435;-76
2022/10/26 15:29:41;;;;;;;3.97;0.50;;;;;;;;;;10485919;28;20051;-76
2022/10/26 15:34:49;;;;;;;0.67;0.20;;;;;;;;;;10508669;28;20047;-76
2022/10/26 15:39:56;;;;;;;0.70;0.47;;;;;;;;;;10503722;28;20115;-75
2022/10/26 15:45:00;;;;;;;0.52;0.40;;;;;;;;;;10501944;28;20040;-77
2022/10/26 15:50:03;;;;;;;0.47;0.30;;;;;;;;;;10490855;28;20706;-76
2022/10/26 15:55:09;;;;;;;1.25;0.35;;;;;;;;;;10467853;28;20652;-76
2022/10/26 16:00:17;;;;;;;1.25;0.52;;;;;;;;;;10511593;28;20039;-76
2022/10/26 16:05:20;;;;;;;2.22;0.40;;;;;;;;;;10491899;28;20048;-77
2022/10/26 16:10:25;;;;;;;0.57;0.40;;;;;;;;;;10487155;28;20803;-77
2022/10/26 16:15:28;;;;;;;0.77;0.40;;;;;;;;;;10497652;28;20040;-76
2022/10/26 16:20:32;;;;;;;0.90;0.50;;;;;;;;;;10490712;28;20044;-76
2022/10/26 16:25:42;;;;;;;1.42;0.50;;;;;;;;;;10463065;28;20051;-77
2022/10/26 16:30:45;;;;;;;1.65;0.70;;;;;;;;;;10482732;28;20063;-77
2022/10/26 16:35:55;;;;;;;1.38;0.65;;;;;;;;;;10488898;28;20118;-77
2022/10/26 16:41:04;;;;;;;2.90;0.90;;;;;;;;;;10500658;28;20036;-76
2022/10/26 16:46:09;;;;;;;6.55;3.30;;;;;;;;;;10521482;28;20032;-77
2022/10/26 16:51:14;;;;;;;6.07;3.15;;;;;;;;;;10512028;28;20040;-76
2022/10/26 16:56:20;;;;;;;4.25;2.05;;;;;;;;;;10489167;28;20036;-76
2022/10/26 17:01:24;;;;;;;3.85;1.60;;;;;;;;;;10482007;28;20094;-77
2022/10/26 17:06:27;;;;;;;1.77;1.05;;;;;;;;;;10463403;28;20494;-76
2022/10/26 17:11:32;;;;;;;2.20;1.20;;;;;;;;;;10480629;28;20508;-77
2022/10/26 17:16:35;;;;;;;1.58;1.13;;;;;;;;;;10492457;28;20059;-78
2022/10/26 17:21:38;;;;;;;2.85;0.63;;;;;;;;;;10463098;28;20039;-78
2022/10/26 17:26:43;;;;;;;1.90;0.63;;;;;;;;;;10466557;28;20044;-77
2022/10/26 17:31:46;;;;;;;1.13;0.60;;;;;;;;;;10502363;28;20040;-78
2022/10/26 17:36:49;;;;;;;1.40;0.70;;;;;;;;;;10492670;28;20832;-77
2022/10/26 17:41:54;;;;;;;1.30;0.52;;;;;;;;;;10487849;28;20048;-78
2022/10/26 17:46:57;;;;;;;3.47;1.52;;;;;;;;;;10488929;28;20051;-77
2022/10/26 17:52:00;;;;;;;3.58;1.73;;;;;;;;;;10485415;28;20041;-77
2022/10/26 17:57:05;;;;;;;4.22;2.25;;;;;;;;;;10483011;28;20068;-79
2022/10/26 18:02:09;;;;;;;3.03;2.13;;;;;;;;;;10490190;28;20040;-77
2022/10/26 18:07:13;;;;;;;2.53;1.80;;;;;;;;;;10491603;28;20056;-78
2022/10/26 18:12:18;;;;;;;3.80;2.10;;;;;;;;;;10492117;28;20047;-77
2022/10/26 18:17:21;;;;;;;7.82;3.15;;;;;;;;;;10480401;28;20111;-77
2022/10/26 18:22:24;;;;;;;6.25;2.72;;;;;;;;;;10472890;28;20052;-77
2022/10/26 18:27:29;;;;;;;4.93;2.20;;;;;;;;;;10494540;28;20044;-77
2022/10/26 18:32:32;;;;;;;4.03;2.40;;;;;;;;;;10515871;28;20047;-77
2022/10/26 18:37:36;;;;;;;4.32;1.90;;;;;;;;;;10493284;28;20134;-77
2022/10/26 18:42:40;;;;;;;3.08;1.95;;;;;;;;;;10488376;28;20039;-77
2022/10/26 18:47:44;;;;;;;9.20;2.90;;;;;;;;;;10472965;28;20098;-77
2022/10/26 18:52:47;;;;;;;4.88;2.45;;;;;;;;;;10487450;28;20048;-77
2022/10/26 18:57:52;;;;;;;5.82;3.13;;;;;;;;;;10493708;28;20053;-77
2022/10/26 19:02:55;;;;;;;6.10;3.00;;;;;;;;;;10498375;28;20071;-77
2022/10/26 19:07:58;;;;;;;5.20;2.72;;;;;;;;;;10484507;28;20123;-77
2022/10/26 19:13:06;;;;;;;6.07;3.17;;;;;;;;;;10496018;28;20040;-77
2022/10/26 19:18:09;;;;;;;5.25;2.58;;;;;;;;;;10502397;28;20047;-76
2022/10/26 19:23:12;;;;;;;3.30;1.95;;;;;;;;;;10508107;28;20090;-77
2022/10/26 19:28:17;;;;;;;3.67;1.35;;;;;;;;;;10518817;28;20044;-77
2022/10/26 19:33:20;;;;;;;2.83;1.50;;;;;;;;;;10515828;28;20119;-78
2022/10/26 19:38:24;;;;;;;2.42;1.15;;;;;;;;;;10511392;28;20040;-78
2022/10/26 19:43:30;;;;;;;4.00;1.50;;;;;;;;;;10476210;28;20423;-77
2022/10/26 19:48:34;;;;;;;7.57;1.88;;;;;;;;;;10511182;28;20040;-77
2022/10/26 19:53:37;;;;;;;6.72;2.60;;;;;;;;;;10492255;28;20047;-77
2022/10/26 19:58:43;;;;;;;4.20;2.80;;;;;;;;;;10517596;28;20059;-78
2022/10/26 20:03:46;;;;;;;;;;;;;;;;;;10483219;28;20036;-78
2022/10/26 20:08:50;;;;;;;4.20;2.60;;;;;;;;;;10481239;28;19920;-80
2022/10/26 20:13:55;;;;;;;3.25;2.00;;;;;;;;;;10481776;28;20033;-79
2022/10/26 20:19:00;;;;;;;2.42;1.45;;;;;;;;;;10493996;28;20042;-79
2022/10/26 20:24:05;;;;;;;3.92;1.75;;;;;;;;;;10494862;28;20120;-80
2022/10/26 20:29:11;;;;;;;4.10;1.27;;;;;;;;;;10482359;28;20040;-77
2022/10/26 20:34:14;;;;;;;3.75;1.50;;;;;;;;;;10480348;28;20044;-77
2022/10/26 20:39:18;;;;;;;4.25;1.50;;;;;;;;;;10497325;28;20044;-77
2022/10/26 20:44:28;;;;;;;3.10;1.92;;;;;;;;;;10497204;28;20032;-77
2022/10/26 20:49:32;;;;;;;3.97;1.75;;;;;;;;;;10479739;28;20052;-77
2022/10/26 20:54:42;;;;;;;4.32;1.40;;;;;;;;;;10486657;28;20431;-77
2022/10/26 20:59:49;;;;;;;21.52;3.83;;;;;;;;;;10472679;28;20068;-77
2022/10/26 21:04:52;;;;;;;6.88;3.70;;;;;;;;;;10497816;28;20047;-77
2022/10/26 21:09:58;;;;;;;4.43;2.90;;;;;;;;;;10495422;28;20536;-77
2022/10/26 21:15:04;;;;;;;3.22;1.70;;;;;;;;;;10481716;28;20408;-77
2022/10/26 21:20:08;;;;;;;3.78;2.35;;;;;;;;;;10516601;28;20036;-77
2022/10/26 21:25:11;;;;;;;4.05;2.20;;;;;;;;;;10500231;28;20040;-77
2022/10/26 21:30:16;;;;;;;3.08;1.80;;;;;;;;;;10503483;28;20036;-77
2022/10/26 21:35:21;;;;;;;4.70;2.60;;;;;;;;;;10518623;28;20066;-78
2022/10/26 21:40:29;;;;;;;8.18;3.50;;;;;;;;;;10492513;28;20636;-78
2022/10/26 21:45:33;;;;;;;4.65;2.00;;;;;;;;;;10498068;28;20051;-77
2022/10/26 21:50:36;;;;;;;4.57;1.90;;;;;;;;;;10500561;28;20062;-78
2022/10/26 21:55:40;;;;;;;5.50;2.30;;;;;;;;;;10510808;28;20128;-78
2022/10/26 22:00:44;;;;;;;5.90;1.90;;;;;;;;;;10497004;28;20229;-79
2022/10/26 22:05:52;;;;;;;5.85;2.20;;;;;;;;;;10486727;28;20044;-79
2022/10/26 22:10:55;;;;;;;4.82;1.92;;;;;;;;;;10495659;28;20051;-79
2022/10/26 22:16:05;;;;;;;5.55;1.88;;;;;;;;;;10508183;28;20047;-79
2022/10/26 22:21:08;;;;;;;5.15;1.80;;;;;;;;;;10482043;28;20048;-79
2022/10/26 22:26:14;;;;;;;5.03;1.65;;;;;;;;;;10485554;28;20500;-79
2022/10/26 22:31:20;;;;;;;4.22;1.55;;;;;;;;;;10486980;28;20127;-79
2022/10/26 22:36:24;;;;;;;3.17;1.42;;;;;;;;;;10484730;28;20052;-79
2022/10/26 22:41:27;;;;;;;2.45;1.05;;;;;;;;;;10487554;28;20056;-79
2022/10/26 22:46:32;;;;;;;6.40;1.70;;;;;;;;;;10476425;28;20036;-79
2022/10/26 22:51:35;;;;;;;2.15;1.17;;;;;;;;;;10477511;28;20045;-79
2022/10/26 22:56:39;;;;;;;2.45;1.27;;;;;;;;;;10487398;28;20048;-79
2022/10/26 23:01:44;;;;;;;3.97;1.65;;;;;;;;;;10526661;28;20055;-79
2022/10/26 23:06:47;;;;;;;2.40;1.70;;;;;;;;;;10494592;28;20447;-79
2022/10/26 23:11:50;;;;;;;3.00;1.50;;;;;;;;;;10492859;28;20455;-79
2022/10/26 23:16:55;;;;;;;5.10;1.98;;;;;;;;;;10504584;28;20048;-78
2022/10/26 23:21:58;;;;;;;5.05;1.92;;;;;;;;;;10508601;28;20527;-80
2022/10/26 23:27:01;;;;;;;4.18;1.92;;;;;;;;;;10507573;28;20052;-78
2022/10/26 23:32:06;;;;;;;2.08;1.50;;;;;;;;;;10511136;28;20049;-79
2022/10/26 23:37:09;;;;;;;1.30;1.00;;;;;;;;;;10502284;28;20048;-79
2022/10/26 23:42:12;;;;;;;3.13;1.00;;;;;;;;;;10491000;28;20044;-79
2022/10/26 23:47:19;;;;;;;2.67;1.05;;;;;;;;;;10486782;28;20079;-78
2022/10/26 23:52:22;;;;;;;1.80;0.80;;;;;;;;;;10488657;28;20036;-80
2022/10/26 23:57:26;;;;;;;2.58;0.80;;;;;;;;;;10477403;28;20522;-78
